.
WxDataArchive / Data Records for 2009-06-11
2009-06-10 June 2009 2009-06-12

Data Records for Thursday, 11 June 2009

Time	Temp	Chill	HIndex	Humid	Dewpt	 Wind 	HiWind	WindDir	Rain 	Barom 
-----	----	-----	------	-----	-----	------	------	-------	-----	----- 
00:00	65.8	65.8	65.8	86	61.5	0	1	90	0.00	29.863 
00:05	65.6	65.6	65.6	87	61.6	0	3	90	0.00	29.863 
00:10	65.6	65.6	65.6	87	61.6	0	1	90	0.00	29.863 
00:15	65.8	65.8	65.8	87	61.8	0	1	90	0.00	29.868 
00:20	65.8	65.8	65.8	86	61.5	0	1	90	0.00	29.868 
00:25	66.0	66.0	66.0	86	61.7	0	1	90	0.00	29.868 
00:30	66.0	66.0	66.0	86	61.7	0	1	90	0.00	29.868 
00:35	66.1	66.1	66.1	86	61.8	0	2	90	0.00	29.868 
00:40	66.1	66.1	66.1	86	61.8	1	4	90	0.00	29.868 
00:45	66.1	66.1	66.1	86	61.8	1	3	90	0.00	29.864 
00:50	66.1	66.1	66.1	86	61.8	0	2	90	0.00	29.864 
00:55	66.1	66.1	66.1	86	61.8	1	3	90	0.00	29.864 
01:00	66.1	66.1	66.1	86	61.8	1	3	90	0.00	29.855 
01:05	66.0	66.0	66.0	86	61.7	1	3	90	0.00	29.855 
01:10	66.0	66.0	66.0	86	61.7	1	4	90	0.00	29.855 
01:15	66.0	66.0	66.0	87	62.0	1	3	90	0.00	29.850 
01:20	65.8	65.8	65.8	87	61.8	1	4	90	0.00	29.850 
01:25	65.8	65.8	65.8	87	61.8	1	4	90	0.00	29.850 
01:30	65.6	65.6	65.6	87	61.6	1	3	90	0.00	29.838 
01:35	65.5	65.5	65.5	87	61.5	1	3	90	0.00	29.838 
01:40	65.5	65.5	65.5	87	61.5	1	3	90	0.00	29.838 
01:45	65.3	65.3	65.3	86	61.0	1	3	90	0.00	29.836 
01:50	65.3	65.3	65.3	86	61.0	0	2	90	0.00	29.836 
01:55	65.2	65.2	65.2	86	60.9	0	1	90	0.00	29.836 
02:00	65.0	65.0	65.0	86	60.7	0	1	90	0.00	29.831 
02:05	65.0	65.0	65.0	85	60.4	0	2	90	0.00	29.831 
02:10	64.8	64.8	64.8	86	60.5	0	2	90	0.00	29.831 
02:15	64.7	64.7	64.7	85	60.1	0	2	90	0.00	29.821 
02:20	64.7	64.7	64.7	85	60.1	0	2	90	0.00	29.821 
02:25	64.5	64.5	64.5	85	59.9	0	2	90	0.00	29.821 
02:30	64.5	64.5	64.5	85	59.9	1	3	90	0.00	29.816 
02:35	64.5	64.5	64.5	85	59.9	1	2	90	0.00	29.816 
02:40	64.5	64.5	64.5	84	59.6	1	2	90	0.00	29.816 
02:45	64.7	64.7	64.7	84	59.7	1	3	90	0.00	29.818 
02:50	64.7	64.7	64.7	83	59.4	1	4	90	0.00	29.818 
02:55	64.8	64.8	64.8	83	59.5	1	3	90	0.00	29.818 
03:00	65.0	65.0	65.0	82	59.4	0	2	90	0.00	29.833 
03:05	65.0	65.0	65.0	82	59.4	1	3	90	0.00	29.833 
03:10	65.2	65.2	65.2	82	59.6	1	3	90	0.00	29.833 
03:15	65.2	65.2	65.2	82	59.6	1	3	90	0.00	29.826 
03:20	65.2	65.2	65.2	82	59.6	1	4	90	0.00	29.826 
03:25	65.2	65.2	65.2	82	59.6	0	2	90	0.00	29.826 
03:30	65.0	65.0	65.0	82	59.4	0	2	90	0.00	29.817 
03:35	65.0	65.0	65.0	83	59.7	1	2	90	0.00	29.817 
03:40	64.8	64.8	64.8	83	59.5	0	1	90	0.00	29.817 
03:45	64.7	64.7	64.7	83	59.4	1	3	90	0.00	29.805 
03:50	64.5	64.5	64.5	83	59.2	1	3	90	0.00	29.805 
03:55	64.5	64.5	64.5	83	59.2	1	3	90	0.00	29.805 
04:00	64.3	64.3	64.3	83	59.0	1	3	90	0.00	29.788 
04:05	64.2	64.2	64.2	83	58.9	1	3	90	0.00	29.788 
04:10	64.0	64.0	64.0	83	58.7	1	3	90	0.00	29.788 
04:15	63.9	63.9	63.9	83	58.6	1	4	90	0.00	29.774 
04:20	63.7	63.7	63.7	83	58.4	1	3	90	0.00	29.774 
04:25	63.5	63.5	63.5	84	58.6	1	4	90	0.00	29.774 
04:30	63.5	63.5	63.5	84	58.6	0	2	90	0.00	29.777 
04:35	63.4	63.4	63.4	84	58.5	1	2	90	0.00	29.777 
04:40	63.4	63.4	63.4	84	58.5	1	2	90	0.00	29.777 
04:45	63.4	63.4	63.4	84	58.5	1	3	90	0.00	29.772 
04:50	63.4	63.4	63.4	84	58.5	1	2	90	0.00	29.772 
04:55	63.4	63.4	63.4	84	58.5	1	4	90	0.00	29.772 
05:00	63.4	63.4	63.4	84	58.5	2	4	90	0.00	29.764 
05:05	63.2	63.2	63.2	84	58.3	1	4	90	0.00	29.764 
05:10	63.2	63.2	63.2	84	58.3	2	6	90	0.00	29.764 
05:15	63.2	63.2	63.2	84	58.3	1	4	112	0.00	29.764 
05:20	63.2	63.2	63.2	84	58.3	1	4	112	0.00	29.764 
05:25	63.2	63.2	63.2	85	58.6	1	2	112	0.00	29.764 
05:30	63.1	63.1	63.1	85	58.5	1	2	112	0.00	29.768 
05:35	63.1	63.1	63.1	85	58.5	1	3	112	0.00	29.768 
05:40	63.1	63.1	63.1	85	58.5	1	3	112	0.00	29.768 
05:45	62.9	62.9	62.9	85	58.3	1	3	112	0.00	29.762 
05:50	62.9	62.9	62.9	86	58.6	1	2	112	0.00	29.762 
05:55	62.9	62.9	62.9	86	58.6	1	2	90	0.00	29.762 
06:00	62.9	62.9	62.9	86	58.6	1	4	90	0.00	29.762 
06:05	62.9	62.9	62.9	87	59.0	0	2	112	0.00	29.762 
06:10	62.9	62.9	62.9	87	59.0	0	2	112	0.00	29.762 
06:15	62.7	62.7	62.7	87	58.8	1	3	112	0.00	29.761 
06:20	62.7	62.7	62.7	87	58.8	1	3	112	0.00	29.761 
06:25	62.6	62.6	62.6	87	58.7	1	6	68	0.00	29.761 
06:30	62.6	62.6	62.6	88	59.0	0	5	68	0.00	29.772 
06:35	62.4	62.4	62.4	88	58.8	1	3	68	0.01	29.772 
06:40	62.4	62.4	62.4	88	58.8	0	1	68	0.00	29.772 
06:45	62.4	62.4	62.4	89	59.1	0	1	68	0.01	29.786 
06:50	62.3	62.3	62.3	90	59.3	0	0	---	0.00	29.786 
06:55	62.3	62.3	62.3	90	59.3	0	1	68	0.01	29.786 
07:00	62.3	62.3	62.3	91	59.6	0	2	68	0.01	29.788 
07:05	62.1	62.1	62.1	91	59.4	0	3	68	0.01	29.788 
07:10	62.0	62.0	62.0	92	59.6	0	1	68	0.01	29.788 
07:15	62.0	62.0	62.0	92	59.6	0	1	68	0.00	29.787 
07:20	61.8	61.8	61.8	92	59.4	0	1	68	0.01	29.787 
07:25	61.8	61.8	61.8	93	59.8	1	3	68	0.00	29.787 
07:30	61.6	61.6	61.6	93	59.6	1	2	112	0.00	29.778 
07:35	61.6	61.6	61.6	93	59.6	0	2	112	0.01	29.778 
07:40	61.8	61.8	61.8	93	59.8	1	4	112	0.00	29.778 
07:45	61.8	61.8	61.8	94	60.1	0	1	68	0.01	29.773 
07:50	61.8	61.8	61.8	94	60.1	1	5	68	0.00	29.773 
07:55	61.8	61.8	61.8	94	60.1	1	2	68	0.00	29.773 
08:00	61.8	61.8	61.8	94	60.1	1	3	90	0.01	29.770 
08:05	61.8	61.8	61.8	94	60.1	1	3	90	0.00	29.770 
08:10	61.8	61.8	61.8	94	60.1	1	2	90	0.01	29.770 
08:15	61.8	61.8	61.8	94	60.1	0	4	90	0.01	29.773 
08:20	61.8	61.8	61.8	95	60.3	1	3	90	0.01	29.773 
08:25	61.8	61.8	61.8	95	60.3	1	3	90	0.01	29.773 
08:30	61.8	61.8	61.8	95	60.3	1	4	90	0.08	29.774 
08:35	61.8	61.8	61.8	95	60.3	0	1	90	0.06	29.774 
08:40	61.8	61.8	61.8	95	60.3	1	4	90	0.02	29.774 
08:45	61.8	61.8	61.8	95	60.3	1	3	90	0.02	29.773 
08:50	61.8	61.8	61.8	95	60.3	0	2	90	0.02	29.773 
08:55	61.8	61.8	61.8	95	60.3	1	3	90	0.01	29.773 
09:00	61.8	61.8	61.8	95	60.3	1	3	90	0.01	29.771 
09:05	62.0	62.0	62.0	95	60.5	0	2	90	0.01	29.771 
09:10	62.0	62.0	62.0	96	60.8	0	3	90	0.01	29.771 
09:15	62.0	62.0	62.0	96	60.8	1	3	68	0.01	29.773 
09:20	62.0	62.0	62.0	96	60.8	0	1	68	0.01	29.773 
09:25	62.1	62.1	62.1	96	60.9	0	0	---	0.01	29.773 
09:30	62.3	62.3	62.3	96	61.1	0	1	68	0.02	29.772 
09:35	62.4	62.4	62.4	96	61.2	0	1	68	0.00	29.772 
09:40	62.6	62.6	62.6	96	61.4	0	1	68	0.01	29.772 
09:45	62.7	62.7	62.7	96	61.5	0	2	68	0.00	29.771 
09:50	62.9	62.9	62.9	96	61.7	0	2	68	0.01	29.771 
09:55	63.1	63.1	63.1	96	61.9	1	2	68	0.00	29.771 
10:00	63.4	63.4	63.4	96	62.2	1	2	68	0.00	29.768 
10:05	63.4	63.4	63.4	96	62.2	0	3	68	0.00	29.768 
10:10	63.5	63.5	63.5	96	62.3	0	2	68	0.01	29.768 
10:15	63.7	63.7	63.7	96	62.5	0	1	68	0.00	29.761 
10:20	64.0	64.0	64.0	96	62.8	0	0	---	0.00	29.761 
10:25	64.2	64.2	64.2	96	63.0	0	0	---	0.00	29.761 
10:30	64.2	64.2	64.2	96	63.0	0	1	68	0.00	29.762 
10:35	64.3	64.3	64.3	96	63.1	0	1	68	0.00	29.762 
10:40	64.5	64.5	64.5	96	63.3	0	1	68	0.00	29.762 
10:45	64.5	64.5	64.5	96	63.3	0	1	68	0.00	29.765 
10:50	64.5	64.5	64.5	96	63.3	0	1	68	0.00	29.765 
10:55	64.7	64.7	64.7	96	63.5	0	2	68	0.00	29.765 
11:00	64.8	64.8	64.8	96	63.6	0	1	68	0.00	29.770 
11:05	65.0	65.0	65.0	96	63.8	0	1	68	0.00	29.770 
11:10	65.0	65.0	65.0	96	63.8	0	2	68	0.00	29.770 
11:15	65.0	65.0	65.0	96	63.8	0	1	68	0.00	29.773 
11:20	65.0	65.0	65.0	96	63.8	0	1	68	0.01	29.773 
11:25	65.0	65.0	65.0	96	63.8	0	1	68	0.00	29.773 
11:30	65.0	65.0	65.0	96	63.8	0	1	68	0.00	29.770 
11:35	65.3	65.3	65.3	96	64.1	0	0	---	0.00	29.770 
11:40	65.5	65.5	65.5	96	64.3	0	1	68	0.00	29.770 
11:45	65.5	65.5	65.5	96	64.3	0	0	---	0.01	29.767 
11:50	65.6	65.6	65.6	96	64.4	0	0	---	0.00	29.767 
11:55	65.8	65.8	65.8	96	64.6	0	0	---	0.00	29.767 
12:00	66.0	66.0	66.0	96	64.8	0	0	---	0.00	29.761 
12:05	66.1	66.1	66.1	96	64.9	0	0	---	0.00	29.761 
12:10	66.1	66.1	66.1	96	64.9	0	0	---	0.00	29.761 
12:15	66.6	66.6	66.6	96	65.4	0	1	158	0.01	29.755 
12:20	66.6	66.6	66.6	96	65.4	0	1	158	0.00	29.755 
12:25	66.4	66.4	66.4	96	65.2	0	1	158	0.00	29.755 
12:30	66.4	66.4	66.4	96	65.2	0	1	158	0.00	29.752 
12:35	66.4	66.4	66.4	96	65.2	0	2	158	0.00	29.752 
12:40	66.6	66.6	66.6	96	65.4	0	1	158	0.00	29.752 
12:45	66.8	66.8	66.8	96	65.6	0	1	158	0.00	29.754 
12:50	66.6	66.6	66.6	95	65.1	0	1	158	0.00	29.754 
12:55	66.8	66.8	66.8	96	65.6	0	0	---	0.00	29.754 
13:00	66.9	66.9	66.9	95	65.4	0	0	---	0.01	29.749 
13:05	66.8	66.8	66.8	95	65.3	0	1	158	0.00	29.749 
13:10	66.4	66.4	66.4	95	64.9	0	1	158	0.00	29.749 
13:15	66.8	66.8	66.8	95	65.3	0	1	158	0.00	29.745 
13:20	66.8	66.8	66.8	94	65.0	0	1	158	0.00	29.745 
13:25	66.8	66.8	66.8	94	65.0	0	1	158	0.00	29.745 
13:30	66.8	66.8	66.8	94	65.0	0	1	158	0.00	29.748 
13:35	66.6	66.6	66.6	93	64.5	0	0	---	0.00	29.748 
13:40	66.6	66.6	66.6	93	64.5	0	1	158	0.00	29.748 
13:45	66.9	66.9	66.9	93	64.8	0	1	158	0.00	29.750 
13:50	66.9	66.9	66.9	93	64.8	0	1	158	0.00	29.750 
13:55	67.1	67.1	67.1	93	65.0	0	1	158	0.00	29.750 
14:00	67.4	67.4	67.4	92	65.0	0	1	158	0.00	29.749 
14:05	67.8	67.8	67.8	92	65.4	0	1	158	0.00	29.749 
14:10	68.1	68.1	68.1	92	65.7	0	2	158	0.00	29.749 
14:15	68.3	68.3	68.3	90	65.2	0	2	158	0.00	29.744 
14:20	68.9	68.9	68.9	89	65.5	0	1	158	0.00	29.744 
14:25	69.3	69.3	69.3	88	65.6	0	1	158	0.00	29.744 
14:30	69.4	69.4	69.4	87	65.4	0	1	158	0.00	29.740 
14:35	69.6	69.6	69.6	87	65.6	0	0	---	0.00	29.740 
14:40	69.8	69.8	69.8	86	65.4	0	1	158	0.00	29.740 
14:45	70.1	70.1	70.1	85	65.4	0	2	158	0.00	29.739 
14:50	70.1	70.1	70.1	86	65.7	0	0	---	0.00	29.739 
14:55	70.1	70.1	70.1	85	65.4	0	1	158	0.00	29.739 
15:00	69.9	69.9	69.9	84	64.8	0	2	158	0.00	29.739 
15:05	69.8	69.8	69.8	85	65.1	0	1	158	0.00	29.739 
15:10	69.6	69.6	69.6	85	64.9	0	2	90	0.00	29.739 
15:15	69.6	69.6	69.6	86	65.2	0	1	90	0.00	29.738 
15:20	69.6	69.6	69.6	85	64.9	1	4	90	0.00	29.738 
15:25	69.9	69.9	69.9	85	65.2	1	4	90	0.00	29.738 
15:30	69.9	69.9	69.9	85	65.2	0	2	90	0.00	29.737 
15:35	69.8	69.8	69.8	84	64.7	0	4	90	0.00	29.737 
15:40	69.8	69.8	69.8	85	65.1	1	3	112	0.00	29.737 
15:45	69.3	69.3	69.3	86	64.9	1	2	112	0.00	29.736 
15:50	68.9	68.9	68.9	86	64.5	1	3	112	0.00	29.736 
15:55	68.6	68.6	68.6	88	64.9	1	3	112	0.00	29.736 
16:00	68.3	68.3	68.3	88	64.6	0	2	112	0.01	29.739 
16:05	67.9	67.9	67.9	89	64.5	0	1	112	0.01	29.739 
16:10	67.6	67.6	67.6	89	64.2	0	0	---	0.07	29.739 
16:15	67.3	67.3	67.3	90	64.3	0	2	112	0.04	29.742 
16:20	66.9	66.9	66.9	91	64.2	0	1	112	0.03	29.742 
16:25	66.6	66.6	66.6	91	63.9	0	2	112	0.06	29.742 
16:30	66.3	66.3	66.3	91	63.6	0	2	112	0.01	29.744 
16:35	66.1	66.1	66.1	92	63.7	0	0	---	0.02	29.744 
16:40	66.0	66.0	66.0	92	63.6	0	0	---	0.01	29.744 
16:45	66.0	66.0	66.0	92	63.6	0	0	---	0.01	29.743 
16:50	66.0	66.0	66.0	93	63.9	0	0	---	0.00	29.743 
16:55	66.0	66.0	66.0	93	63.9	0	0	---	0.01	29.743 
17:00	66.0	66.0	66.0	93	63.9	0	1	112	0.00	29.743 
17:05	66.0	66.0	66.0	94	64.2	0	1	112	0.00	29.743 
17:10	66.1	66.1	66.1	94	64.3	0	1	112	0.00	29.743 
17:15	66.0	66.0	66.0	94	64.2	0	0	---	0.00	29.751 
17:20	66.0	66.0	66.0	94	64.2	0	1	112	0.00	29.751 
17:25	65.6	65.6	65.6	94	63.8	0	1	112	0.00	29.751 
17:30	65.2	65.2	65.2	94	63.4	0	2	112	0.03	29.757 
17:35	65.2	65.2	65.2	94	63.4	0	1	112	0.02	29.757 
17:40	64.8	64.8	64.8	94	63.0	0	2	112	0.02	29.757 
17:45	64.7	64.7	64.7	94	62.9	0	2	112	0.02	29.759 
17:50	64.7	64.7	64.7	94	62.9	0	3	112	0.02	29.759 
17:55	64.7	64.7	64.7	95	63.2	0	2	112	0.00	29.759 
18:00	64.7	64.7	64.7	95	63.2	0	3	112	0.01	29.761 
18:05	64.5	64.5	64.5	94	62.7	1	3	112	0.00	29.761 
18:10	64.5	64.5	64.5	95	63.0	0	1	112	0.00	29.761 
18:15	64.5	64.5	64.5	95	63.0	1	3	112	0.01	29.763 
18:20	64.2	64.2	64.2	95	62.7	0	2	90	0.01	29.763 
18:25	64.2	64.2	64.2	95	62.7	1	3	90	0.01	29.763 
18:30	64.0	64.0	64.0	95	62.5	0	2	90	0.02	29.771 
18:35	64.0	64.0	64.0	95	62.5	0	2	90	0.01	29.771 
18:40	64.0	64.0	64.0	95	62.5	0	1	90	0.01	29.771 
18:45	64.0	64.0	64.0	95	62.5	1	4	90	0.00	29.775 
18:50	64.0	64.0	64.0	95	62.5	1	3	135	0.01	29.775 
18:55	64.0	64.0	64.0	95	62.5	1	3	90	0.00	29.775 
19:00	64.0	64.0	64.0	95	62.5	0	2	90	0.00	29.776 
19:05	63.9	63.9	63.9	95	62.4	0	2	90	0.01	29.776 
19:10	63.7	63.7	63.7	95	62.2	0	3	112	0.00	29.776 
19:15	63.7	63.7	63.7	95	62.2	1	2	112	0.00	29.787 
19:20	63.5	63.5	63.5	95	62.0	1	4	112	0.00	29.787 
19:25	63.4	63.4	63.4	95	61.9	1	4	112	0.00	29.787 
19:30	63.4	63.4	63.4	95	61.9	0	1	112	0.00	29.795 
19:35	63.2	63.2	63.2	95	61.7	0	2	112	0.01	29.795 
19:40	63.2	63.2	63.2	95	61.7	0	2	112	0.01	29.795 
19:45	63.2	63.2	63.2	95	61.7	0	1	112	0.01	29.799 
19:50	63.1	63.1	63.1	95	61.6	0	2	112	0.01	29.799 
19:55	62.7	62.7	62.7	95	61.2	1	3	135	0.00	29.799 
20:00	62.6	62.6	62.6	95	61.1	2	4	112	0.00	29.798 
20:05	62.4	62.4	62.4	95	60.9	1	3	112	0.01	29.798 
20:10	62.4	62.4	62.4	96	61.2	1	4	112	0.00	29.798 
20:15	62.3	62.3	62.3	95	60.8	2	5	90	0.00	29.793 
20:20	62.3	62.3	62.3	96	61.1	1	3	112	0.00	29.793 
20:25	62.1	62.1	62.1	95	60.6	2	6	112	0.00	29.793 
20:30	62.1	62.1	62.1	96	60.9	2	6	90	0.00	29.794 
20:35	62.1	62.1	62.1	96	60.9	2	5	90	0.00	29.794 
20:40	62.0	62.0	62.0	96	60.8	1	4	112	0.00	29.794 
20:45	62.0	62.0	62.0	95	60.5	1	4	112	0.00	29.799 
20:50	62.0	62.0	62.0	95	60.5	2	6	112	0.00	29.799 
20:55	61.8	61.8	61.8	95	60.3	2	5	112	0.00	29.799 
21:00	61.8	61.8	61.8	95	60.3	1	5	112	0.00	29.801 
21:05	61.8	61.8	61.8	95	60.3	2	6	112	0.00	29.801 
21:10	61.6	61.6	61.6	95	60.2	2	6	90	0.00	29.801 
21:15	61.6	61.6	61.6	95	60.2	1	4	112	0.00	29.802 
21:20	61.6	61.6	61.6	95	60.2	2	5	68	0.00	29.802 
21:25	61.6	61.6	61.6	95	60.2	1	3	112	0.00	29.802 
21:30	61.6	61.6	61.6	95	60.2	1	4	112	0.00	29.806 
21:35	61.6	61.6	61.6	95	60.2	0	2	112	0.00	29.806 
21:40	61.5	61.5	61.5	95	60.1	0	3	158	0.00	29.806 
21:45	61.5	61.5	61.5	95	60.1	0	2	158	0.00	29.813 
21:50	61.3	61.3	61.3	95	59.9	1	4	112	0.00	29.813 
21:55	61.3	61.3	61.3	95	59.9	1	6	135	0.00	29.813 
22:00	61.3	61.3	61.3	95	59.9	0	3	135	0.00	29.825 
22:05	61.2	61.2	61.2	95	59.8	1	3	135	0.00	29.825 
22:10	61.2	61.2	61.2	95	59.8	1	3	158	0.00	29.825 
22:15	61.0	61.0	61.0	95	59.6	0	4	135	0.00	29.831 
22:20	61.0	61.0	61.0	95	59.6	0	3	135	0.00	29.831 
22:25	60.9	60.9	60.9	95	59.5	0	2	135	0.00	29.831 
22:30	60.9	60.9	60.9	95	59.5	1	2	135	0.00	29.834 
22:35	60.7	60.7	60.7	95	59.3	0	3	112	0.00	29.834 
22:40	60.7	60.7	60.7	95	59.3	1	6	112	0.00	29.834 
22:45	60.7	60.7	60.7	95	59.3	0	2	112	0.00	29.835 
22:50	60.7	60.7	60.7	95	59.3	0	0	---	0.00	29.835 
22:55	60.5	60.5	60.5	95	59.1	0	1	112	0.00	29.835 
23:00	60.5	60.5	60.5	95	59.1	0	2	112	0.00	29.838 
23:05	60.5	60.5	60.5	95	59.1	0	2	112	0.00	29.838 
23:10	60.4	60.4	60.4	95	59.0	0	2	112	0.00	29.838 
23:15	60.2	60.2	60.2	95	58.8	0	1	112	0.00	29.838 
23:20	60.2	60.2	60.2	95	58.8	0	1	112	0.00	29.838 
23:25	60.2	60.2	60.2	95	58.8	0	2	158	0.00	29.838 
23:30	60.1	60.1	60.1	95	58.7	0	1	158	0.00	29.839 
23:35	60.1	60.1	60.1	95	58.7	1	3	158	0.00	29.839 
23:40	59.9	59.9	59.9	95	58.5	0	2	158	0.00	29.839 
23:45	59.9	59.9	59.9	95	58.5	0	2	158	0.00	29.840 
23:50	59.9	59.9	59.9	95	58.5	1	2	158	0.00	29.840 
23:55	59.9	59.9	59.9	95	58.5	1	3	158	0.00	29.840 

CoCoRaHS
IN-AL-39
A2 Web Hosting
Creative Commons License
GoDaddy
search engine by freefind advanced

loaded 2018-11-13 21:35:59 • last modified 2010-11-18 10:43:29
Privacy PolicyDisclaimer
• wx.awcolley.com is powered by PmWiki v.2002016 •
• all content (unless otherwise noted) © 2018 A W Colley